GALEX EGPH-EGPH

Flight info

Callsign GALEX
Flight time 0h 1m
Altitude 2000
Route EGPH CIRCUITS
Aircraft C172/L-SDFGRWY/S

Departure

Time 2026-04-21 20:15
Airport Edinburgh Airport (EGPH)

Arrival

Time 2026-04-21 20:16
Airport Edinburgh Airport (EGPH)
Time Latitude Longitude Altitude Speed Heading
2026-04-21 19:57 55.94835 -3.34445 102 ft 0 kts 315°
2026-04-21 20:02 55.94837 -3.34448 102 ft 3 kts 311°
2026-04-21 20:03 55.94819 -3.34585 102 ft 17 kts 235°
2026-04-21 20:03 55.94764 -3.34797 102 ft 18 kts 293°
2026-04-21 20:03 55.94833 -3.34969 102 ft 18 kts 296°
2026-04-21 20:03 55.94899 -3.35187 102 ft 22 kts 299°
2026-04-21 20:04 55.94979 -3.35447 102 ft 26 kts 300°
2026-04-21 20:04 55.95069 -3.35740 102 ft 28 kts 300°
2026-04-21 20:04 55.95181 -3.35967 102 ft 21 kts 337°
2026-04-21 20:04 55.95185 -3.36138 102 ft 15 kts 242°
2026-04-21 20:05 55.95121 -3.36330 102 ft 22 kts 240°
2026-04-21 20:05 55.95038 -3.36577 102 ft 22 kts 238°
2026-04-21 20:05 55.94950 -3.36831 102 ft 23 kts 237°
2026-04-21 20:05 55.94874 -3.37053 102 ft 19 kts 238°
2026-04-21 20:06 55.94803 -3.37263 102 ft 20 kts 238°
2026-04-21 20:06 55.94731 -3.37476 102 ft 20 kts 237°
2026-04-21 20:06 55.94661 -3.37679 102 ft 18 kts 239°
2026-04-21 20:06 55.94599 -3.37863 102 ft 9 kts 238°
2026-04-21 20:07 55.94607 -3.37968 102 ft 3 kts 317°
2026-04-21 20:07 55.94607 -3.37969 102 ft 0 kts 317°
2026-04-21 20:11 55.94613 -3.37978 102 ft 6 kts 320°
2026-04-21 20:11 55.94665 -3.38039 102 ft 14 kts 331°
2026-04-21 20:11 55.94735 -3.38028 104 ft 9 kts 55°
2026-04-21 20:12 55.94740 -3.38016 104 ft 0 kts 57°
2026-04-21 20:12 55.94740 -3.38014 104 ft 3 kts 56°
2026-04-21 20:12 55.94793 -3.37864 105 ft 40 kts 58°
2026-04-21 20:12 55.95021 -3.37190 101 ft 84 kts 59°
2026-04-21 20:13 55.95367 -3.36194 203 ft 96 kts 57°
2026-04-21 20:13 55.95736 -3.35252 326 ft 93 kts 53°
2026-04-21 20:13 55.96318 -3.34864 392 ft 92 kts
2026-04-21 20:13 55.96922 -3.35076 419 ft 91 kts 335°
2026-04-21 20:14 55.97289 -3.35965 467 ft 95 kts 270°
2026-04-21 20:14 55.97035 -3.37028 566 ft 90 kts 240°
2026-04-21 20:14 55.96728 -3.37969 649 ft 88 kts 241°
2026-04-21 20:14 55.96389 -3.38902 730 ft 91 kts 238°
2026-04-21 20:15 55.96026 -3.39818 809 ft 91 kts 236°
2026-04-21 20:15 55.95630 -3.40702 878 ft 93 kts 230°
2026-04-21 20:15 55.95139 -3.41521 873 ft 99 kts 203°
2026-04-21 20:15 55.94500 -3.41321 989 ft 91 kts 146°
2026-04-21 20:16 55.94123 -3.40535 783 ft 81 kts 94°
2026-04-21 20:16 55.94224 -3.39544 466 ft 85 kts 62°
2026-04-21 20:16 55.94486 -3.38781 242 ft 62 kts 63°
2026-04-21 20:16 55.94679 -3.38206 120 ft 46 kts 63°
2026-04-21 20:17 55.94823 -3.37758 104 ft 51 kts 59°
2026-04-21 20:17 55.95074 -3.37046 175 ft 77 kts 61°
2026-04-21 20:17 55.95371 -3.36240 402 ft 77 kts 59°
2026-04-21 20:17 55.95795 -3.35676 558 ft 94 kts 12°
2026-04-21 20:18 55.96392 -3.36210 827 ft 102 kts 329°
2026-04-21 20:18 55.96897 -3.37126 960 ft 108 kts 323°
2026-04-21 20:18 55.97253 -3.38332 1031 ft 121 kts 271°
2026-04-21 20:18 55.96836 -3.39604 928 ft 122 kts 223°
2026-04-21 20:19 55.96203 -3.40563 969 ft 114 kts 212°
2026-04-21 20:19 55.95641 -3.41635 948 ft 121 kts 224°
2026-04-21 20:19 55.95066 -3.42647 1043 ft 114 kts 219°
2026-04-21 20:19 55.94490 -3.43618 1021 ft 114 kts 217°
2026-04-21 20:20 55.94074 -3.44758 1047 ft 115 kts 273°
2026-04-21 20:20 55.94218 -3.46064 1171 ft 107 kts 292°
2026-04-21 20:20 55.94525 -3.47228 1126 ft 99 kts 347°
2026-04-21 20:20 55.95059 -3.46954 1152 ft 80 kts 53°
2026-04-21 20:21 55.95415 -3.46260 1212 ft 78 kts 56°
2026-04-21 20:21 55.95309 -3.45302 1123 ft 95 kts 133°
2026-04-21 20:21 55.94704 -3.44984 1238 ft 104 kts 180°
2026-04-21 20:21 55.94111 -3.45894 1206 ft 119 kts 258°
2026-04-21 20:22 55.94424 -3.47045 1093 ft 108 kts 355°
2026-04-21 20:22 55.94719 -3.45461 1071 ft 98 kts 135°
2026-04-21 20:22 55.94154 -3.44934 1160 ft 86 kts 144°
2026-04-21 20:23 55.93716 -3.44409 1227 ft 55 kts 102°
2026-04-21 20:23 55.93554 -3.43800 1186 ft 48 kts 99°
2026-04-21 20:23 55.93474 -3.43209 1111 ft 46 kts 89°
2026-04-21 20:23 55.93475 -3.42620 983 ft 48 kts 82°
2026-04-21 20:24 55.93540 -3.42020 848 ft 51 kts 75°
2026-04-21 20:24 55.93651 -3.41436 735 ft 48 kts 69°
2026-04-21 20:24 55.93796 -3.40873 584 ft 50 kts 64°
2026-04-21 20:24 55.93975 -3.40339 464 ft 52 kts 63°
2026-04-21 20:25 55.94152 -3.39795 386 ft 51 kts 61°
2026-04-21 20:25 55.94327 -3.39237 268 ft 52 kts 63°
2026-04-21 20:25 55.94515 -3.38687 172 ft 52 kts 62°
2026-04-21 20:25 55.94691 -3.38156 110 ft 46 kts 64°
2026-04-21 20:26 55.94839 -3.37715 103 ft 39 kts 58°
2026-04-21 20:26 55.95033 -3.37147 142 ft 67 kts 60°
2026-04-21 20:26 55.95285 -3.36454 367 ft 70 kts 59°
2026-04-21 20:26 55.95776 -3.36368 589 ft 90 kts 339°
2026-04-21 20:27 55.96226 -3.37168 911 ft 89 kts 320°
2026-04-21 20:27 55.96586 -3.38092 1145 ft 97 kts 300°
2026-04-21 20:27 55.96489 -3.39348 1275 ft 111 kts 236°
2026-04-21 20:27 55.96019 -3.40332 1364 ft 102 kts 225°
2026-04-21 20:28 55.95495 -3.41131 1349 ft 102 kts 220°
2026-04-21 20:28 55.94954 -3.41951 1330 ft 102 kts 211°
2026-04-21 20:28 55.94359 -3.42422 1259 ft 91 kts 159°
2026-04-21 20:28 55.93815 -3.41958 1165 ft 83 kts 127°
2026-04-21 20:29 55.93736 -3.41058 910 ft 87 kts 72°
2026-04-21 20:29 55.94041 -3.40103 624 ft 80 kts 60°
2026-04-21 20:29 55.94298 -3.39337 429 ft 67 kts 61°
2026-04-21 20:29 55.94517 -3.38699 271 ft 54 kts 62°
2026-04-21 20:30 55.94693 -3.38172 154 ft 48 kts 63°
2026-04-21 20:30 55.94864 -3.37671 126 ft 46 kts 64°
2026-04-21 20:30 55.95006 -3.37224 102 ft 37 kts 61°
2026-04-21 20:30 55.95119 -3.36879 103 ft 31 kts 57°
2026-04-21 20:31 55.95235 -3.36520 101 ft 24 kts 60°
2026-04-21 20:31 55.95253 -3.36430 101 ft 0 kts 101°
2026-04-21 20:31 55.95240 -3.36401 101 ft 4 kts 142°
2026-04-21 20:32 55.95230 -3.36388 101 ft 0 kts 140°
2026-04-21 20:32 55.95216 -3.36375 101 ft 3 kts 150°
2026-04-21 20:32 55.95213 -3.36371 102 ft 0 kts 140°
2026-04-21 20:32 55.95197 -3.36352 102 ft 10 kts 152°
2026-04-21 20:33 55.95155 -3.36239 102 ft 12 kts 93°
2026-04-21 20:33 55.95194 -3.36099 102 ft 14 kts 62°
2026-04-21 20:33 55.95205 -3.35987 102 ft 16 kts 126°
2026-04-21 20:33 55.95123 -3.35865 102 ft 14 kts 128°
2026-04-21 20:34 55.95035 -3.35623 102 ft 23 kts 121°
2026-04-21 20:34 55.94965 -3.35400 102 ft 19 kts 118°
2026-04-21 20:34 55.94893 -3.35165 102 ft 21 kts 120°
2026-04-21 20:34 55.94839 -3.34958 102 ft 14 kts 91°
2026-04-21 20:35 55.94884 -3.34852 102 ft 9 kts 47°
2026-04-21 20:35 55.94885 -3.34796 102 ft 4 kts 175°
2026-04-21 20:35 55.94863 -3.34817 102 ft 6 kts 216°
2026-04-21 20:35 55.94805 -3.34830 102 ft 10 kts 160°
2026-04-21 20:36 55.94788 -3.34684 102 ft 16 kts 64°
2026-04-21 20:36 55.94836 -3.34529 102 ft 19 kts 64°
2026-04-21 20:36 55.94822 -3.34394 102 ft 9 kts 131°
2026-04-21 20:36 55.94843 -3.34373 102 ft 7 kts 325°
2026-04-21 20:37 55.94857 -3.34388 102 ft 0 kts 326°